• Join FlightAware (Why Join?)
  • Login
  • US Flag 
04:58PM EST


 

Airport Tracker/Info


-or-


 

Live Flight TrackerFlight Track Log ✈ SWA655 ✈ 10-Apr-2013 ✈ KLAX - KLAS

Flight Track Log - Related Links

Times and Time Zones

All times are in EDT time to prevent confusion due to time zone crossing. See the SWA655 flight status page for this flight to view local times or setup timezone preferences in your user account.

Time Position Orientation Groundspeed Altitude Reporting Facility
EDT Latitude Longitude Course Direction KTS MPH feet Rate Location/Type
07:11PM 33.9372 -118.5236 263° West 210 242 3,200  Level Los Angeles Center
07:12PM 33.9022 -118.5986 241° Southwest 267 307 6,700 3,060 Climbing Los Angeles Center
07:13PM 33.8500 -118.5528 144° Southeast 260 299 9,600 2,460 Climbing Los Angeles Center
07:14PM 33.8942 -118.4772 55° Northeast 276 318 11,800 2,100 Climbing Los Angeles Center
07:15PM 33.9461 -118.4108 47° Northeast 321 369 14,000 2,520 Climbing Los Angeles Center
07:16PM 34.0108 -118.2947 56° Northeast 344 396 17,100 2,580 Climbing Los Angeles Center
07:17PM 34.0706 -118.1903 55° Northeast 371 427 19,400 2,280 Climbing Los Angeles Center
07:18PM 34.1308 -118.0836 56° Northeast 382 440 21,900 2,040 Climbing Los Angeles Center
07:19PM 34.1928 -117.9750 55° Northeast 390 449 23,700 1,500 Climbing Los Angeles Center
07:20PM 34.2567 -117.8589 56° Northeast 412 474 25,000 600 Climbing Los Angeles Center
07:22PM 34.3244 -117.7392 56° Northeast 429 494 25,000  Level Los Angeles Center
07:23PM 34.3950 -117.6100 56° Northeast 432 497 25,000 480 Level Los Angeles Center
07:24PM 34.4603 -117.4936 56° Northeast 423 487 26,100 1,260 Climbing Los Angeles Center
07:25PM 34.5369 -117.3536 56° Northeast 421 484 27,700 1,380 Climbing Los Angeles Center
07:26PM 34.6033 -117.2350 56° Northeast 427 491 29,000 600 Climbing Los Angeles Center
07:27PM 34.6681 -117.1164 56° Northeast 424 488 29,000  Level Los Angeles Center
07:28PM 34.7317 -116.9983 57° Northeast 422 486 29,000  Level Los Angeles Center
07:29PM 34.7978 -116.8789 56° Northeast 426 490 29,000  Level Los Angeles Center
07:30PM 34.8772 -116.7317 57° Northeast 434 499 29,000 -180 Level Los Angeles Center
07:31PM 34.9433 -116.6097 56° Northeast 435 501 28,700 -1,320 Descending Los Angeles Center
07:32PM 35.0200 -116.5050 48° Northeast 414 476 26,300 -2,280 Descending Los Angeles Center
07:33PM 35.0969 -116.4075 46° Northeast 402 463 24,000 -1,140 Descending Los Angeles Center
07:34PM 35.1700 -116.3169 45° Northeast 383 441 24,000  Level Los Angeles Center
07:35PM 35.2594 -116.2047 46° Northeast 384 442 24,000 -660 Level Los Angeles Center
07:36PM 35.3311 -116.1133 46° Northeast 376 433 22,600 -1,740 Descending Los Angeles Center
07:37PM 35.4156 -116.0075 46° Northeast 362 417 20,100 -2,280 Descending Los Angeles Center
07:38PM 35.4636 -115.9433 47° Northeast 362 417 18,700 -1,980 Descending Los Angeles Center
07:38PM 35.4814 -115.9233 42° Northeast 346 398 18,100 -2,100 Descending Los Angeles Center
07:39PM 35.5614 -115.8208 46° Northeast 358 412 15,800 -2,100 Descending Los Angeles Center
07:40PM 35.6264 -115.7411 45° Northeast 341 392 13,800 -1,440 Descending Los Angeles Center
07:41PM 35.6394 -115.6444 81° East 312 359 12,900 -720 Descending Los Angeles Center
07:42PM 35.6314 -115.5556 96° East 271 312 12,400 -1,020 Descending Los Angeles Center
07:43PM 35.6417 -115.4778 81° East 237 273 10,800 -1,740 Descending Los Angeles Center
07:45PM 35.6825 -115.3975 58° Northeast 248 285 8,900 -1,380 Descending Los Angeles Center
07:46PM 35.7428 -115.3544 30° Northeast 235 270 7,900 -960 Descending Los Angeles Center
07:47PM 35.7969 -115.3275 22° Northeast 232 267 7,000 -480 Descending Los Angeles Center
07:48PM 35.8564 -115.2958 23° Northeast 232 267 7,000 -180 Level Los Angeles Center
07:49PM 35.9103 -115.2631 26° Northeast 227 261 6,700 -840 Descending Los Angeles Center
07:50PM 35.9572 -115.2364 25° Northeast 208 239 5,300 -1,440 Descending Los Angeles Center
07:51PM 36.0189 -115.2031 24° Northeast 188 216 3,700 -1,260 Descending Los Angeles Center
07:52PM 36.0464 -115.1858 27° Northeast 144 166 3,000 -960 Descending Los Angeles Center
07:53PM 36.0836 -115.1633 26° Northeast 148 170 2,100 -900 Descending Los Angeles Center